Lake View, NY (14085)

1:48 PM EDT on June 26, 2017 (GMT -0400)
| | Change Station

Elev -9999 ft 0.00 °N, 0.00 °E | Updated 4 minutes ago

Partly Cloudy
Partly Cloudy
°F
Feels Like °F
N
Wind Variable Wind from North
Gusts mph

Today
High -- | Low -- °F
--% Chance of Precip.
Yesterday
High -- | Low -- °F
Precip. -- in
Pressure 29.97 in
Visibility 10.0 miles
Clouds Scattered Clouds 3700 ft
Scattered Clouds 10000 ft
Scattered Clouds 28000 ft
Dew Point Not available.
Humidity Not available.
Rainfall --
Snow Depth Not available.
5:39 AM 8:57 PM
Waxing Crescent, 10% visible
METAR KBUF 261654Z 24014G25KT 10SM SCT037 SCT100 SCT280 21/11 A2998 RMK AO2 LTG DSNT S SLP149 CB DSNT S AND W MOV E MDT CU DSNT ALQDS T02060111
Pressure 29.97 in
Visibility 10.0 miles
Clouds Scattered Clouds 3700 ft
Scattered Clouds 10000 ft
Scattered Clouds 28000 ft
Dew Point Not available.
Humidity Not available.
Rainfall --
Snow Depth Not available.
5:39 AM 8:57 PM
Waxing Crescent, 10% visible
METAR KBUF 261654Z 24014G25KT 10SM SCT037 SCT100 SCT280 21/11 A2998 RMK AO2 LTG DSNT S SLP149 CB DSNT S AND W MOV E MDT CU DSNT ALQDS T02060111

Get Severe Weather Alerts

Thanks for signing up!

Be on the lookout for a verification email in your inbox.

You'll start receiving the daily forecast at 6 AM.

×

10-Day Weather Forecast

Almanac

Astronomy

Jun. 26, 2017 Rise Set
Actual Time
Civil Twilight
Nautical Twilight
Astronomical Twilight
Moon
Length of Visible Light
Length of Day
Tomorrow will be .
, % of the Moon is Illuminated

Today's Extremes

State Highs State Lows

Community

WunderPhotos

Category 6

Welcome to Category 6. This is the collective home for Weather Underground's featured writeups by Dr. Jeff Masters (right), Bob Henson (left), Chris Burt, and other regular contributors.

Nearby

Air Quality

  Air Quality AQ Index Pollutant
Not available.

Snow Depth

Station Depth Elevation

Earthquake Activity

City Distance Mag. Time & Date
Minimum magnitude displayed is 2.5.

Coastal Water Temperatures

Place Temperature

Stations

Nearby Weather Stations

Station Location Temp. Windchill Dew Point Humidity Wind Precip. Elev Updated Type
                   

Watches & Warnings

There are currently no watches in effect.